createdAt,value
2023-01-03T00:04:29.106Z,4.96
2023-01-03T00:09:30.946Z,5.07
2023-01-03T00:14:35.547Z,5.05
2023-01-03T00:19:43.251Z,5.05
2023-01-03T00:24:46.437Z,5.06
2023-01-03T00:29:48.077Z,4.98
2023-01-03T00:34:49.711Z,5.09
2023-01-03T00:39:51.365Z,5.09
2023-01-03T00:44:52.963Z,5.18
2023-01-03T00:49:54.841Z,5.16
2023-01-03T00:54:56.649Z,5.11
2023-01-03T00:59:58.249Z,5.12
2023-01-03T01:05:00.166Z,5.12
2023-01-03T01:10:02.319Z,5.00
2023-01-03T01:15:04.489Z,4.98
2023-01-03T01:20:07.284Z,5.16
2023-01-03T01:25:08.946Z,5.12
2023-01-03T01:30:10.614Z,5.14
2023-01-03T01:35:12.220Z,5.25
2023-01-03T01:40:13.924Z,5.13
2023-01-03T01:45:15.584Z,5.16
2023-01-03T01:50:29.361Z,5.06
2023-01-03T01:55:45.169Z,5.15
2023-01-03T02:00:46.786Z,5.19
2023-01-03T02:05:53.630Z,5.21
2023-01-03T02:11:15.944Z,5.19
2023-01-03T02:16:35.884Z,5.23
2023-01-03T02:21:46.504Z,5.22
2023-01-03T02:27:13.151Z,5.22
2023-01-03T02:32:43.165Z,5.20
2023-01-03T02:37:54.165Z,5.16
2023-01-03T02:43:17.075Z,5.23
2023-01-03T02:48:31.116Z,5.20
2023-01-03T02:53:42.011Z,5.25
2023-01-03T02:58:47.880Z,5.26
2023-01-03T03:03:52.526Z,5.26
2023-01-03T03:08:54.354Z,5.15
2023-01-03T03:14:22.531Z,5.07
2023-01-03T03:19:54.289Z,5.00
2023-01-03T03:24:59.502Z,4.92
2023-01-03T03:30:03.945Z,4.89
2023-01-03T03:35:10.715Z,4.93
2023-01-03T03:40:32.572Z,4.77
2023-01-03T03:46:21.784Z,4.80
2023-01-03T03:51:28.819Z,4.69
2023-01-03T03:56:32.756Z,4.65
2023-01-03T04:01:37.848Z,4.69
2023-01-03T04:06:49.175Z,4.58
2023-01-03T04:11:50.921Z,4.55
2023-01-03T04:16:52.573Z,4.71
2023-01-03T04:21:54.226Z,4.90
2023-01-03T04:26:56.059Z,4.89
2023-01-03T04:31:57.715Z,4.85
2023-01-03T04:36:59.344Z,4.90
2023-01-03T04:42:01.574Z,4.95
2023-01-03T04:47:03.517Z,4.94
2023-01-03T04:52:05.230Z,5.00
2023-01-03T04:57:07.512Z,5.07
2023-01-03T05:02:09.233Z,5.18
2023-01-03T05:07:11.059Z,5.22
2023-01-03T05:12:12.838Z,5.27
2023-01-03T05:17:14.435Z,5.21
2023-01-03T05:22:34.759Z,5.28
2023-01-03T05:27:36.431Z,5.31
2023-01-03T05:32:37.994Z,5.17
2023-01-03T05:37:39.747Z,5.25
2023-01-03T05:42:41.357Z,5.28
2023-01-03T05:47:42.960Z,5.31
2023-01-03T05:52:44.563Z,5.31
2023-01-03T05:57:47.331Z,5.29
2023-01-03T06:02:49.225Z,5.27
2023-01-03T06:07:50.880Z,5.21
2023-01-03T06:12:52.519Z,5.15
2023-01-03T06:18:02.943Z,5.12
2023-01-03T06:23:04.543Z,5.09
2023-01-03T06:28:06.188Z,5.08
2023-01-03T06:33:08.146Z,5.00
2023-01-03T06:38:09.988Z,4.98
2023-01-03T06:43:11.617Z,4.99
2023-01-03T06:48:31.903Z,4.97
2023-01-03T06:53:37.570Z,4.98
2023-01-03T06:58:39.213Z,5.00
2023-01-03T07:03:40.817Z,4.99
2023-01-03T07:08:47.848Z,4.94
2023-01-03T07:13:59.607Z,4.93
2023-01-03T07:19:02.276Z,4.88
2023-01-03T07:24:05.855Z,4.89
2023-01-03T07:29:09.548Z,4.91
2023-01-03T07:34:11.202Z,5.04
2023-01-03T07:39:12.858Z,5.03
2023-01-03T07:44:14.454Z,5.19
2023-01-03T07:49:16.077Z,5.24
2023-01-03T07:54:17.679Z,5.35
2023-01-03T07:59:19.843Z,5.41
2023-01-03T08:04:21.726Z,5.51
2023-01-03T08:09:43.573Z,5.59
2023-01-03T08:14:45.355Z,5.70
2023-01-03T08:19:46.969Z,5.79
2023-01-03T08:24:48.584Z,5.86
2023-01-03T08:29:50.254Z,5.99
2023-01-03T08:34:52.131Z,6.10
2023-01-03T08:40:01.598Z,6.18
2023-01-03T08:45:09.204Z,6.19
2023-01-03T08:50:12.486Z,6.34
2023-01-03T08:55:14.178Z,6.51
2023-01-03T09:00:16.038Z,6.60
2023-01-03T09:05:17.859Z,6.72
2023-01-03T09:10:19.529Z,6.82
2023-01-03T09:15:21.216Z,6.93
2023-01-03T09:20:22.924Z,6.92
2023-01-03T09:25:24.800Z,7.08
2023-01-03T09:30:26.461Z,7.04
2023-01-03T09:35:28.256Z,7.13
2023-01-03T09:40:31.577Z,7.19
2023-01-03T09:45:34.850Z,7.28
2023-01-03T09:51:05.846Z,7.34
2023-01-03T09:56:19.528Z,7.46
2023-01-03T10:01:51.428Z,7.60
2023-01-03T10:07:14.583Z,7.67
2023-01-03T10:12:43.779Z,7.74
2023-01-03T10:18:09.984Z,7.78
2023-01-03T10:23:11.950Z,7.93
2023-01-03T10:28:21.416Z,7.87
2023-01-03T10:33:33.061Z,7.95
2023-01-03T10:38:43.675Z,8.07
2023-01-03T10:44:00.602Z,8.19
2023-01-03T10:49:28.312Z,8.27
2023-01-03T10:54:40.419Z,8.38
2023-01-03T10:59:49.325Z,8.48
2023-01-03T11:05:12.260Z,8.49
2023-01-03T11:10:18.755Z,8.68
2023-01-03T11:15:42.522Z,8.85
2023-01-03T11:20:57.791Z,8.80
2023-01-03T11:26:05.324Z,8.95
2023-01-03T11:31:17.346Z,8.80
2023-01-03T11:36:22.588Z,8.66
2023-01-03T11:41:33.611Z,8.91
2023-01-03T11:47:07.119Z,8.81
2023-01-03T11:52:27.975Z,8.82
2023-01-03T11:58:05.847Z,8.93
2023-01-03T12:03:31.946Z,9.10
2023-01-03T12:09:02.251Z,9.19
2023-01-03T12:14:19.530Z,9.15
2023-01-03T12:19:51.419Z,9.23
2023-01-03T12:25:07.156Z,9.19
2023-01-03T12:30:24.905Z,9.26
2023-01-03T12:35:32.975Z,9.23
2023-01-03T12:41:07.893Z,9.28
2023-01-03T12:46:15.432Z,9.36
2023-01-03T12:51:20.719Z,9.33
2023-01-03T12:56:55.659Z,9.29
2023-01-03T13:02:00.810Z,9.37
2023-01-03T13:07:33.400Z,9.23
2023-01-03T13:12:39.108Z,9.32
2023-01-03T13:17:46.419Z,9.31
2023-01-03T13:23:01.739Z,9.43
2023-01-03T13:28:18.737Z,9.38
2023-01-03T13:33:20.975Z,9.46
2023-01-03T13:38:37.108Z,9.54
2023-01-03T13:43:40.257Z,9.57
2023-01-03T13:48:53.877Z,9.63
2023-01-03T13:54:18.654Z,9.59
2023-01-03T13:59:42.886Z,9.58
2023-01-03T14:04:52.990Z,9.58
2023-01-03T14:10:01.187Z,9.62
2023-01-03T14:15:25.004Z,9.63
2023-01-03T14:20:34.680Z,9.50
2023-01-03T14:25:39.384Z,9.41
2023-01-03T14:30:41.355Z,9.45
2023-01-03T14:35:44.605Z,9.40
2023-01-03T14:40:48.333Z,9.38
2023-01-03T14:45:55.758Z,9.11
2023-01-03T14:51:01.483Z,9.08
2023-01-03T14:56:03.503Z,9.16
2023-01-03T15:01:08.647Z,9.13
2023-01-03T15:06:21.405Z,9.10
2023-01-03T15:11:33.174Z,9.08
2023-01-03T15:16:38.138Z,9.03
2023-01-03T15:21:41.469Z,8.94
2023-01-03T15:26:51.335Z,8.83
2023-01-03T15:31:57.824Z,8.77
2023-01-03T15:37:00.942Z,8.72
2023-01-03T15:47:43.877Z,8.60
2023-01-03T15:52:48.976Z,8.61
2023-01-03T15:57:52.603Z,8.58
2023-01-03T16:02:54.382Z,8.59
2023-01-03T16:07:56.068Z,8.41
2023-01-03T16:12:57.727Z,8.22
2023-01-03T16:17:59.366Z,8.33
2023-01-03T16:23:02.021Z,8.33
2023-01-03T16:28:10.201Z,8.29
2023-01-03T16:33:21.029Z,8.26
2023-01-03T16:38:25.596Z,8.17
2023-01-03T16:43:27.623Z,8.12
2023-01-03T16:48:40.410Z,8.09
2023-01-03T16:53:42.010Z,7.99
2023-01-03T16:58:43.687Z,7.97
2023-01-03T17:03:45.891Z,7.94
2023-01-03T17:08:47.624Z,7.93
2023-01-03T17:13:49.623Z,7.84
2023-01-03T17:18:53.422Z,7.84
2023-01-03T17:24:00.759Z,7.84
2023-01-03T17:29:04.729Z,7.85
2023-01-03T17:34:28.048Z,7.83
2023-01-03T17:39:29.851Z,7.82
2023-01-03T17:44:31.455Z,7.79
2023-01-03T17:49:33.090Z,7.78
2023-01-03T17:54:40.465Z,7.72
2023-01-03T17:59:42.130Z,7.68
2023-01-03T18:05:14.138Z,7.65
2023-01-03T18:10:07.603Z,7.65
2023-01-03T18:15:21.351Z,7.64
2023-01-03T18:20:23.180Z,7.63
2023-01-03T18:25:25.904Z,7.61
2023-01-03T18:30:27.796Z,7.58
2023-01-03T18:35:37.249Z,7.53
2023-01-03T18:40:40.906Z,7.49
2023-01-03T18:45:42.680Z,7.48
2023-01-03T18:50:49.402Z,7.48
2023-01-03T18:55:53.556Z,7.47
2023-01-03T19:00:55.284Z,7.45
2023-01-03T19:05:59.344Z,7.45
2023-01-03T19:11:07.573Z,7.47
2023-01-03T19:16:09.315Z,7.46
2023-01-03T19:21:14.485Z,7.44
2023-01-03T19:26:27.283Z,7.45
2023-01-03T19:31:39.231Z,7.44
2023-01-03T19:36:41.079Z,7.37
2023-01-03T19:42:07.769Z,7.41
2023-01-03T19:47:17.825Z,7.44
2023-01-03T19:52:19.412Z,7.46
2023-01-03T19:57:24.709Z,7.46
2023-01-03T20:02:32.390Z,7.44
2023-01-03T20:07:34.287Z,7.35
2023-01-03T20:12:35.937Z,7.41
2023-01-03T20:17:37.534Z,7.41
2023-01-03T20:28:02.083Z,7.40
2023-01-03T20:33:04.064Z,7.30
2023-01-03T20:38:05.690Z,7.35
2023-01-03T20:43:13.581Z,7.36
2023-01-03T20:48:24.729Z,7.32
2023-01-03T20:53:27.541Z,7.40
2023-01-03T20:58:29.354Z,7.38
2023-01-03T21:03:31.053Z,7.42
2023-01-03T21:08:51.309Z,7.48
2023-01-03T21:13:53.607Z,7.53
2023-01-03T21:18:55.818Z,7.60
2023-01-03T21:23:57.518Z,7.59
2023-01-03T21:28:59.724Z,7.60
2023-01-03T21:34:03.136Z,7.60
2023-01-03T21:39:05.017Z,7.60
2023-01-03T21:44:07.855Z,7.57
2023-01-03T21:49:09.519Z,7.50
2023-01-03T21:54:11.853Z,7.39
2023-01-03T21:59:15.688Z,7.40
2023-01-03T22:04:17.385Z,7.38
2023-01-03T22:09:38.061Z,7.31
2023-01-03T22:14:39.929Z,7.26
2023-01-03T22:19:41.996Z,7.18
2023-01-03T22:24:43.866Z,7.09
2023-01-03T22:29:45.497Z,7.01
2023-01-03T22:34:47.101Z,6.97
2023-01-03T22:39:48.764Z,6.87
2023-01-03T22:44:50.408Z,6.86
2023-01-03T22:49:52.059Z,6.77
2023-01-03T22:54:53.657Z,6.69
2023-01-03T22:59:55.297Z,6.43
2023-01-03T23:04:57.122Z,6.35
2023-01-03T23:09:58.735Z,6.23
2023-01-03T23:15:00.325Z,6.14
2023-01-03T23:20:02.175Z,6.09
2023-01-03T23:25:03.942Z,6.05
2023-01-03T23:30:06.159Z,5.94
2023-01-03T23:35:08.950Z,5.87
2023-01-03T23:40:11.198Z,5.81
2023-01-03T23:45:12.883Z,5.74
2023-01-03T23:50:14.515Z,5.73
2023-01-03T23:55:16.191Z,5.59
